createdAt,value
2018-06-09T00:02:17.982Z,58.20
2018-06-09T00:04:47.422Z,58.10
2018-06-09T00:07:17.326Z,58.70
2018-06-09T00:09:46.766Z,58.80
2018-06-09T00:12:16.294Z,58.90
2018-06-09T00:14:45.745Z,59.30
2018-06-09T00:17:15.501Z,59.30
2018-06-09T00:19:45.577Z,59.30
2018-06-09T00:22:15.190Z,59.50
2018-06-09T00:24:46.367Z,59.30
2018-06-09T00:27:16.725Z,59.50
2018-06-09T00:29:46.844Z,59.20
2018-06-09T00:32:16.456Z,59.40
2018-06-09T00:34:46.403Z,59.30
2018-06-09T00:37:15.914Z,59.40
2018-06-09T00:39:45.689Z,59.70
2018-06-09T00:42:16.209Z,59.40
2018-06-09T00:44:46.072Z,58.60
2018-06-09T00:47:16.448Z,58.90
2018-06-09T00:49:46.380Z,59.40
2018-06-09T00:52:16.488Z,59.20
2018-06-09T00:54:46.507Z,59.50
2018-06-09T00:57:15.944Z,60.20
2018-06-09T00:59:45.816Z,60.70
2018-06-09T01:02:15.937Z,61.30
2018-06-09T01:04:45.740Z,61.30
2018-06-09T01:07:16.272Z,61.30
2018-06-09T01:09:46.020Z,60.80
2018-06-09T01:12:15.191Z,60.90
2018-06-09T01:14:45.007Z,60.90
2018-06-09T01:17:14.935Z,60.80
2018-06-09T01:19:44.831Z,61.00
2018-06-09T01:22:15.459Z,61.20
2018-06-09T01:24:45.921Z,61.60
2018-06-09T01:27:15.723Z,61.60
2018-06-09T01:29:46.020Z,61.80
2018-06-09T01:32:16.142Z,61.60
2018-06-09T01:34:46.263Z,62.60
2018-06-09T01:37:16.323Z,62.20
2018-06-09T01:39:45.565Z,62.70
2018-06-09T01:42:16.367Z,62.80
2018-06-09T01:44:46.943Z,63.00
2018-06-09T01:47:17.063Z,62.80
2018-06-09T01:49:47.594Z,62.80
2018-06-09T01:52:17.387Z,61.70
2018-06-09T01:54:47.363Z,62.10
2018-06-09T01:57:17.290Z,62.00
2018-06-09T01:59:47.185Z,61.70
2018-06-09T02:02:17.058Z,61.80
2018-06-09T02:04:46.975Z,61.10
2018-06-09T02:07:16.896Z,61.70
2018-06-09T02:09:47.124Z,62.10
2018-06-09T02:12:16.958Z,61.70
2018-06-09T02:14:46.944Z,61.40
2018-06-09T02:17:17.032Z,62.20
2018-06-09T02:19:46.912Z,61.90
2018-06-09T02:22:16.819Z,60.80
2018-06-09T02:24:46.718Z,59.60
2018-06-09T02:27:16.677Z,58.60
2018-06-09T02:29:46.637Z,57.10
2018-06-09T02:32:15.491Z,55.50
2018-06-09T02:34:44.675Z,53.70
2018-06-09T02:37:14.827Z,52.00
2018-06-09T02:39:44.355Z,50.90
2018-06-09T02:42:13.547Z,50.40
2018-06-09T02:44:43.564Z,50.70
2018-06-09T02:47:13.786Z,51.50
2018-06-09T02:49:43.707Z,51.60
2018-06-09T02:52:13.609Z,51.50
2018-06-09T02:54:47.634Z,51.70
2018-06-09T02:57:17.669Z,51.50
2018-06-09T02:59:47.070Z,50.60
2018-06-09T03:02:16.911Z,49.50
2018-06-09T03:04:46.381Z,47.00
2018-06-09T03:07:16.071Z,45.40
2018-06-09T03:09:45.972Z,43.70
2018-06-09T03:12:16.036Z,42.20
2018-06-09T03:14:45.855Z,40.70
2018-06-09T03:17:15.228Z,39.50
2018-06-09T03:19:44.732Z,38.10
2018-06-09T03:22:15.466Z,37.00
2018-06-09T03:24:45.317Z,36.20
2018-06-09T03:27:14.511Z,35.50
2018-06-09T03:29:44.504Z,34.70
2018-06-09T03:32:14.216Z,33.90
2018-06-09T03:34:43.903Z,33.60
2018-06-09T03:37:13.730Z,32.90
2018-06-09T03:39:43.840Z,32.30
2018-06-09T03:42:12.745Z,32.00
2018-06-09T03:44:43.060Z,31.40
2018-06-09T03:47:13.087Z,31.00
2018-06-09T03:49:42.814Z,30.60
2018-06-09T03:52:12.502Z,30.10
2018-06-09T03:54:42.918Z,29.80
2018-06-09T03:57:12.731Z,29.30
2018-06-09T03:59:42.178Z,29.10
2018-06-09T04:04:40.696Z,28.70
2018-06-09T04:07:10.173Z,28.60
2018-06-09T04:09:40.152Z,28.30
2018-06-09T04:12:09.726Z,28.10
2018-06-09T04:14:39.801Z,28.00
2018-06-09T04:17:09.584Z,27.70
2018-06-09T04:19:39.308Z,27.70
2018-06-09T04:22:08.651Z,27.70
2018-06-09T04:24:38.823Z,27.60
2018-06-09T04:27:08.500Z,27.90
2018-06-09T04:29:38.320Z,27.70
2018-06-09T04:32:08.566Z,27.90
2018-06-09T04:34:38.590Z,27.50
2018-06-09T04:37:07.290Z,27.70
2018-06-09T04:39:37.179Z,27.80
2018-06-09T04:42:07.119Z,27.70
2018-06-09T04:44:37.326Z,27.60
2018-06-09T04:47:06.950Z,27.50
2018-06-09T04:49:36.842Z,27.50
2018-06-09T04:52:06.263Z,27.50
2018-06-09T04:54:35.783Z,27.60
2018-06-09T04:57:06.082Z,27.70
2018-06-09T04:59:36.606Z,27.40
2018-06-09T05:02:06.455Z,27.80
2018-06-09T05:04:36.327Z,28.60
2018-06-09T05:07:06.246Z,28.10
2018-06-09T05:09:35.983Z,27.70
2018-06-09T05:12:05.719Z,27.40
2018-06-09T05:14:35.573Z,27.30
2018-06-09T05:17:05.395Z,27.30
2018-06-09T05:19:34.979Z,27.20
2018-06-09T05:22:04.432Z,27.60
2018-06-09T05:24:34.429Z,27.50
2018-06-09T05:27:04.010Z,27.40
2018-06-09T05:29:33.370Z,27.70
2018-06-09T05:32:02.937Z,27.70
2018-06-09T05:34:32.651Z,27.60
2018-06-09T05:37:02.502Z,27.80
2018-06-09T05:39:30.933Z,27.60
2018-06-09T05:41:59.357Z,27.80
2018-06-09T05:44:27.865Z,27.60
2018-06-09T05:46:57.146Z,27.80
2018-06-09T05:49:27.591Z,28.50
2018-06-09T05:51:57.358Z,29.00
2018-06-09T05:54:27.250Z,29.50
2018-06-09T05:56:57.404Z,30.00
2018-06-09T05:59:26.577Z,31.10
2018-06-09T06:01:56.095Z,31.60
2018-06-09T06:04:26.125Z,31.80
2018-06-09T06:06:56.041Z,32.60
2018-06-09T06:09:25.327Z,33.30
2018-06-09T06:11:54.846Z,33.60
2018-06-09T06:14:24.523Z,33.50
2018-06-09T06:16:54.272Z,34.10
2018-06-09T06:19:23.443Z,34.00
2018-06-09T06:21:52.593Z,34.70
2018-06-09T06:24:21.324Z,35.60
2018-06-09T06:26:50.724Z,35.80
2018-06-09T06:29:20.772Z,36.40
2018-06-09T06:31:50.248Z,36.40
2018-06-09T06:34:20.150Z,37.80
2018-06-09T06:36:50.368Z,38.10
2018-06-09T06:39:19.890Z,39.00
2018-06-09T06:44:19.099Z,40.60
2018-06-09T06:46:49.220Z,41.80
2018-06-09T06:49:19.543Z,42.40
2018-06-09T06:51:48.761Z,42.70
2018-06-09T06:54:18.450Z,43.70
2018-06-09T06:56:48.474Z,43.40
2018-06-09T07:00:47.884Z,44.00
2018-06-09T07:03:17.722Z,43.80
2018-06-09T07:05:47.162Z,44.40
2018-06-09T07:08:16.668Z,44.50
2018-06-09T07:10:46.604Z,44.90
2018-06-09T07:13:16.025Z,45.60
2018-06-09T07:15:46.059Z,45.30
2018-06-09T07:18:15.936Z,45.30
2018-06-09T07:20:45.377Z,44.90
2018-06-09T07:23:15.249Z,45.60
2018-06-09T07:25:45.331Z,44.60
2018-06-09T07:28:15.112Z,44.60
2018-06-09T07:30:44.814Z,45.00
2018-06-09T07:33:14.614Z,45.60
2018-06-09T07:35:44.534Z,46.30
2018-06-09T07:38:13.977Z,46.60
2018-06-09T07:43:12.977Z,46.70
2018-06-09T07:45:42.528Z,47.10
2018-06-09T07:48:12.466Z,46.30
2018-06-09T07:50:42.385Z,46.40
2018-06-09T07:53:12.117Z,46.40
2018-06-09T07:55:41.295Z,45.80
2018-06-09T07:58:10.803Z,46.00
2018-06-09T08:00:40.401Z,44.60
2018-06-09T08:03:10.382Z,44.30
2018-06-09T08:05:40.220Z,44.80
2018-06-09T08:08:09.642Z,45.20
2018-06-09T08:10:39.318Z,45.10
2018-06-09T08:13:09.177Z,44.80
2018-06-09T08:15:39.397Z,44.90
2018-06-09T08:18:09.504Z,44.60
2018-06-09T08:20:39.337Z,44.40
2018-06-09T08:23:08.221Z,43.90
2018-06-09T08:25:38.217Z,44.80
2018-06-09T08:28:07.836Z,43.50
2018-06-09T08:30:37.375Z,45.00
2018-06-09T08:33:10.104Z,44.70
2018-06-09T08:35:41.356Z,44.00
2018-06-09T08:38:11.294Z,42.90
2018-06-09T08:40:41.400Z,43.30
2018-06-09T08:43:11.744Z,43.00
2018-06-09T08:45:43.484Z,43.00
2018-06-09T08:48:13.599Z,43.60
2018-06-09T08:50:43.220Z,43.30
2018-06-09T08:53:13.152Z,44.50
2018-06-09T08:55:43.499Z,45.10
2018-06-09T08:58:13.663Z,44.20
2018-06-09T09:00:43.689Z,44.20
2018-06-09T09:03:13.683Z,44.00
2018-06-09T09:05:43.914Z,44.00
2018-06-09T09:08:13.969Z,44.00
2018-06-09T09:10:44.271Z,44.20
2018-06-09T09:13:13.922Z,43.80
2018-06-09T09:15:43.225Z,44.40
2018-06-09T09:18:12.905Z,44.80
2018-06-09T09:20:42.647Z,45.20
2018-06-09T09:23:12.021Z,45.40
2018-06-09T09:25:41.539Z,44.50
2018-06-09T09:28:11.623Z,45.20
2018-06-09T09:30:41.247Z,45.80
2018-06-09T09:33:10.936Z,44.70
2018-06-09T09:35:40.350Z,44.10
2018-06-09T09:38:13.805Z,44.10
2018-06-09T09:40:44.374Z,44.60
2018-06-09T09:43:14.837Z,45.70
2018-06-09T09:45:44.616Z,45.00
2018-06-09T09:49:44.332Z,44.20
2018-06-09T09:52:13.701Z,43.90
2018-06-09T09:54:43.267Z,44.30
2018-06-09T09:57:12.947Z,43.50
2018-06-09T09:59:42.979Z,43.60
2018-06-09T10:02:12.818Z,43.70
2018-06-09T10:04:42.984Z,43.40
2018-06-09T10:07:12.801Z,42.70
2018-06-09T10:09:42.760Z,43.90
2018-06-09T10:12:12.636Z,44.30
2018-06-09T10:14:42.151Z,44.00
2018-06-09T10:17:11.865Z,42.60
2018-06-09T10:19:41.376Z,43.10
2018-06-09T10:22:11.081Z,44.30
2018-06-09T10:24:40.530Z,43.30
2018-06-09T10:27:10.073Z,42.90
2018-06-09T10:29:39.512Z,42.10
2018-06-09T10:32:09.124Z,42.60
2018-06-09T10:34:39.000Z,43.40
2018-06-09T10:37:08.415Z,43.10
2018-06-09T10:39:37.241Z,41.50
2018-06-09T10:42:07.106Z,42.70
2018-06-09T10:44:36.524Z,41.60
2018-06-09T10:47:06.830Z,41.60
2018-06-09T10:49:36.242Z,42.40
2018-06-09T10:52:05.781Z,41.60
2018-06-09T10:54:35.477Z,41.80
2018-06-09T10:57:04.448Z,41.30
2018-06-09T10:59:34.980Z,41.20
2018-06-09T11:02:04.866Z,40.30
2018-06-09T11:04:34.696Z,40.90
2018-06-09T11:07:04.723Z,39.60
2018-06-09T11:09:34.032Z,39.70
2018-06-09T11:12:03.043Z,40.50
2018-06-09T11:14:33.600Z,40.10
2018-06-09T11:17:02.237Z,40.90
2018-06-09T11:19:32.134Z,40.80
2018-06-09T11:22:01.853Z,40.20
2018-06-09T11:24:31.636Z,40.90
2018-06-09T11:27:01.508Z,39.40
2018-06-09T11:29:32.819Z,40.10
2018-06-09T11:32:02.462Z,41.50
2018-06-09T11:34:33.412Z,40.50
2018-06-09T11:37:03.214Z,39.90
2018-06-09T11:39:34.973Z,39.30
2018-06-09T11:42:07.632Z,38.30
2018-06-09T11:44:38.100Z,40.00
2018-06-09T11:47:08.337Z,38.00
2018-06-09T11:49:38.540Z,37.30
2018-06-09T11:52:09.037Z,37.20
2018-06-09T11:54:39.684Z,37.70
2018-06-09T11:57:09.493Z,38.30
2018-06-09T11:59:42.152Z,37.80
2018-06-09T12:02:11.814Z,37.50
2018-06-09T12:04:41.666Z,37.20
2018-06-09T12:07:11.135Z,37.10
2018-06-09T12:09:42.221Z,36.70
2018-06-09T12:12:12.955Z,38.30
2018-06-09T12:14:43.281Z,38.70
2018-06-09T12:17:13.611Z,38.00
2018-06-09T12:22:14.068Z,39.20
2018-06-09T12:24:44.460Z,37.10
2018-06-09T12:27:14.902Z,37.30
2018-06-09T12:29:45.545Z,37.60
2018-06-09T12:32:15.297Z,38.30
2018-06-09T12:34:44.635Z,35.90
2018-06-09T12:37:14.069Z,35.90
2018-06-09T12:39:43.660Z,34.90
2018-06-09T12:42:15.442Z,35.90
2018-06-09T12:44:45.424Z,35.20
2018-06-09T12:47:16.415Z,35.00
2018-06-09T12:49:46.282Z,35.80
2018-06-09T12:52:16.325Z,33.90
2018-06-09T12:54:45.813Z,33.80
2018-06-09T12:57:16.074Z,33.90
2018-06-09T12:59:46.923Z,33.40
2018-06-09T13:02:16.378Z,31.90
2018-06-09T13:04:45.737Z,31.50
2018-06-09T13:07:15.664Z,33.20
2018-06-09T13:09:46.932Z,33.10
2018-06-09T13:12:17.082Z,34.30
2018-06-09T13:17:16.458Z,35.10
2018-06-09T13:22:17.636Z,35.20
2018-06-09T13:24:48.454Z,33.70
2018-06-09T13:27:18.331Z,33.30
2018-06-09T13:29:50.832Z,33.00
2018-06-09T13:32:21.417Z,34.30
2018-06-09T13:34:51.103Z,34.30
2018-06-09T13:37:20.599Z,32.50
2018-06-09T13:39:50.308Z,33.10
2018-06-09T13:42:20.280Z,32.90
2018-06-09T13:44:50.253Z,33.60
2018-06-09T13:47:19.645Z,34.50
2018-06-09T13:49:49.544Z,34.20
2018-06-09T13:52:19.121Z,30.70
2018-06-09T13:54:47.983Z,28.80
2018-06-09T13:57:17.687Z,27.90
2018-06-09T13:59:47.176Z,31.20
2018-06-09T14:02:16.578Z,29.70
2018-06-09T14:04:46.587Z,26.20
2018-06-09T14:07:16.339Z,25.20
2018-06-09T14:09:46.118Z,27.90
2018-06-09T14:12:16.243Z,26.60
2018-06-09T14:14:46.138Z,25.50
2018-06-09T14:17:16.271Z,25.30
2018-06-09T14:19:50.539Z,24.30
2018-06-09T14:22:25.734Z,24.80
2018-06-09T14:24:55.283Z,24.60
2018-06-09T14:27:24.687Z,24.40
2018-06-09T14:29:54.349Z,24.20
2018-06-09T14:32:23.795Z,24.40
2018-06-09T14:34:54.075Z,24.20
2018-06-09T14:37:24.192Z,24.40
2018-06-09T14:39:53.505Z,23.70
2018-06-09T14:42:23.540Z,23.70
2018-06-09T14:44:53.740Z,23.60
2018-06-09T14:47:23.770Z,24.00
2018-06-09T14:49:53.450Z,23.60
2018-06-09T14:52:23.179Z,23.20
2018-06-09T14:54:52.562Z,24.80
2018-06-09T14:57:22.123Z,27.20
2018-06-09T14:59:52.120Z,28.10
2018-06-09T15:02:22.322Z,28.20
2018-06-09T15:04:52.244Z,30.10
2018-06-09T15:07:21.832Z,28.90
2018-06-09T15:09:51.773Z,29.80
2018-06-09T15:12:21.246Z,27.40
2018-06-09T15:14:50.557Z,27.40
2018-06-09T15:17:20.778Z,28.50
2018-06-09T15:19:50.384Z,27.20
2018-06-09T15:22:20.451Z,26.70
2018-06-09T15:24:49.413Z,28.30
2018-06-09T15:27:18.615Z,28.30
2018-06-09T15:29:48.630Z,27.00
2018-06-09T15:32:18.523Z,26.90
2018-06-09T15:34:47.949Z,25.40
2018-06-09T15:37:18.054Z,25.40
2018-06-09T15:39:47.912Z,25.10
2018-06-09T15:42:18.073Z,25.70
2018-06-09T15:44:47.601Z,25.50
2018-06-09T15:47:17.395Z,26.50
2018-06-09T15:49:47.419Z,25.70
2018-06-09T15:52:16.948Z,25.60
2018-06-09T15:54:46.844Z,25.50
2018-06-09T15:57:16.446Z,25.50
2018-06-09T15:59:45.884Z,25.50
2018-06-09T16:02:16.189Z,25.60
2018-06-09T16:04:46.598Z,25.80
2018-06-09T16:07:16.030Z,26.10
2018-06-09T16:09:46.331Z,25.90
2018-06-09T16:12:16.353Z,26.50
2018-06-09T16:14:44.789Z,26.80
2018-06-09T16:17:14.355Z,26.90
2018-06-09T16:19:44.035Z,27.00
2018-06-09T16:22:13.474Z,27.50
2018-06-09T16:24:43.454Z,27.40
2018-06-09T16:27:13.270Z,27.70
2018-06-09T16:29:43.599Z,27.50
2018-06-09T16:32:13.659Z,27.80
2018-06-09T16:34:43.070Z,28.30
2018-06-09T16:37:12.151Z,28.80
2018-06-09T16:39:42.429Z,29.40
2018-06-09T16:42:12.037Z,30.00
2018-06-09T16:44:40.612Z,30.10
2018-06-09T16:47:10.255Z,30.60
2018-06-09T16:49:40.274Z,31.10
2018-06-09T16:52:10.100Z,31.40
2018-06-09T16:54:40.035Z,31.80
2018-06-09T16:57:09.412Z,31.90
2018-06-09T16:59:39.431Z,32.00
2018-06-09T17:02:08.885Z,32.10
2018-06-09T17:04:38.873Z,33.00
2018-06-09T17:07:09.056Z,32.60
2018-06-09T17:09:38.561Z,32.60
2018-06-09T17:12:08.155Z,32.90
2018-06-09T17:14:37.561Z,32.90
2018-06-09T17:17:07.705Z,32.90
2018-06-09T17:19:37.550Z,32.60
2018-06-09T17:22:06.909Z,32.30
2018-06-09T17:24:36.816Z,32.10
2018-06-09T17:27:06.271Z,31.90
2018-06-09T17:29:35.433Z,31.60
2018-06-09T17:32:05.007Z,31.60
2018-06-09T17:34:34.069Z,31.40
2018-06-09T17:37:03.611Z,31.50
2018-06-09T17:39:33.367Z,31.20
2018-06-09T17:42:02.518Z,31.20
2018-06-09T17:44:32.442Z,31.20
2018-06-09T17:47:02.590Z,31.40
2018-06-09T17:49:32.669Z,31.60
2018-06-09T17:52:02.289Z,31.90
2018-06-09T17:54:32.139Z,32.00
2018-06-09T17:57:02.229Z,32.40
2018-06-09T17:59:32.438Z,33.00
2018-06-09T18:02:02.364Z,33.00
2018-06-09T18:04:31.840Z,33.30
2018-06-09T18:07:01.812Z,33.60
2018-06-09T18:09:31.653Z,33.80
2018-06-09T18:12:01.617Z,34.00
2018-06-09T18:14:31.322Z,34.10
2018-06-09T18:17:01.070Z,34.00
2018-06-09T18:19:31.475Z,34.00
2018-06-09T18:22:01.665Z,34.00
2018-06-09T18:24:31.757Z,34.20
2018-06-09T18:27:01.497Z,34.60
2018-06-09T18:29:31.405Z,34.70
2018-06-09T18:32:01.253Z,34.90
2018-06-09T18:34:31.164Z,35.30
2018-06-09T18:37:00.704Z,35.40
2018-06-09T18:39:29.916Z,35.50
2018-06-09T18:41:59.334Z,35.60
2018-06-09T18:44:29.280Z,35.80
2018-06-09T18:46:59.499Z,36.00
2018-06-09T18:51:58.603Z,36.80
2018-06-09T18:54:28.006Z,36.80
2018-06-09T18:56:57.958Z,37.10
2018-06-09T18:59:28.744Z,37.30
2018-06-09T19:01:58.990Z,37.60
2018-06-09T19:04:29.031Z,37.90
2018-06-09T19:07:14.107Z,38.30
2018-06-09T19:09:44.015Z,38.60
2018-06-09T19:12:13.919Z,39.00
2018-06-09T19:14:44.127Z,39.30
2018-06-09T19:17:13.657Z,39.60
2018-06-09T19:19:43.947Z,40.00
2018-06-09T19:22:13.984Z,40.10
2018-06-09T19:24:44.171Z,40.40
2018-06-09T19:27:13.534Z,40.70
2018-06-09T19:29:43.368Z,40.90
2018-06-09T19:32:12.772Z,41.10
2018-06-09T19:34:42.600Z,41.30
2018-06-09T19:37:12.075Z,41.50
2018-06-09T19:39:41.225Z,41.80
2018-06-09T19:42:11.277Z,42.30
2018-06-09T19:44:40.647Z,42.60
2018-06-09T19:47:10.962Z,43.00
2018-06-09T19:49:40.978Z,43.00
2018-06-09T19:52:10.968Z,43.10
2018-06-09T19:54:40.831Z,43.40
2018-06-09T19:57:11.044Z,43.60
2018-06-09T19:59:41.086Z,43.90
2018-06-09T20:02:10.457Z,44.00
2018-06-09T20:04:40.386Z,44.10
2018-06-09T20:07:10.496Z,44.30
2018-06-09T20:09:40.361Z,44.50
2018-06-09T20:12:10.188Z,44.70
2018-06-09T20:14:40.122Z,44.80
2018-06-09T20:17:10.355Z,44.90
2018-06-09T20:19:40.285Z,45.00
2018-06-09T20:22:10.801Z,44.90
2018-06-09T20:24:40.265Z,45.30
2018-06-09T20:27:10.106Z,45.40
2018-06-09T20:29:40.026Z,45.50
2018-06-09T20:32:09.775Z,45.80
2018-06-09T20:34:39.748Z,45.70
2018-06-09T20:37:09.381Z,45.90
2018-06-09T20:39:39.716Z,46.10
2018-06-09T20:42:09.596Z,46.20
2018-06-09T20:44:40.031Z,46.40
2018-06-09T20:47:09.628Z,46.50
2018-06-09T20:49:39.194Z,46.70
2018-06-09T20:52:08.363Z,47.00
2018-06-09T20:54:37.990Z,47.20
2018-06-09T20:57:07.906Z,47.40
2018-06-09T20:59:37.827Z,47.60
2018-06-09T21:02:07.724Z,47.80
2018-06-09T21:04:37.128Z,47.90
2018-06-09T21:07:08.253Z,48.00
2018-06-09T21:09:38.066Z,48.00
2018-06-09T21:12:07.262Z,48.10
2018-06-09T21:14:37.256Z,48.20
2018-06-09T21:17:07.640Z,48.30
2018-06-09T21:19:36.296Z,48.30
2018-06-09T21:22:06.199Z,48.30
2018-06-09T21:24:36.097Z,48.50
2018-06-09T21:27:11.093Z,48.70
2018-06-09T21:30:04.307Z,48.90
2018-06-09T21:32:38.991Z,49.00
2018-06-09T21:35:24.207Z,49.30
2018-06-09T21:37:58.628Z,49.30
2018-06-09T21:40:33.047Z,49.50
2018-06-09T21:43:07.785Z,49.60
2018-06-09T21:45:53.361Z,49.70
2018-06-09T21:48:23.221Z,49.80
2018-06-09T21:50:52.582Z,50.10
2018-06-09T21:53:22.189Z,50.20
2018-06-09T21:55:51.664Z,50.40
2018-06-09T21:58:21.603Z,50.50
2018-06-09T22:00:51.566Z,50.80
2018-06-09T22:03:20.469Z,50.70
2018-06-09T22:05:50.431Z,50.90
2018-06-09T22:08:20.066Z,50.90
2018-06-09T22:10:49.596Z,50.90
2018-06-09T22:13:19.481Z,50.80
2018-06-09T22:15:49.706Z,50.80
2018-06-09T22:18:19.702Z,51.20
2018-06-09T22:20:49.660Z,51.30
2018-06-09T22:23:19.415Z,51.60
2018-06-09T22:25:54.525Z,52.00
2018-06-09T22:28:24.283Z,52.20
2018-06-09T22:30:54.097Z,52.50
2018-06-09T22:33:23.914Z,52.50
2018-06-09T22:35:53.481Z,52.90
2018-06-09T22:38:22.937Z,53.00
2018-06-09T22:40:51.801Z,53.20
2018-06-09T22:43:21.845Z,53.20
2018-06-09T22:45:52.532Z,53.40
2018-06-09T22:48:22.754Z,53.40
2018-06-09T22:50:52.949Z,53.70
2018-06-09T22:53:22.543Z,53.70
2018-06-09T22:55:53.153Z,53.90
2018-06-09T22:58:23.829Z,53.90
2018-06-09T23:00:54.025Z,54.00
2018-06-09T23:03:24.663Z,54.10
2018-06-09T23:08:27.021Z,54.10
2018-06-09T23:10:57.092Z,54.30
2018-06-09T23:13:27.542Z,54.40
2018-06-09T23:15:57.315Z,54.90
2018-06-09T23:18:27.892Z,54.50
2018-06-09T23:20:57.798Z,54.90
2018-06-09T23:23:28.019Z,54.80
2018-06-09T23:25:58.062Z,55.50
2018-06-09T23:28:30.444Z,55.60
2018-06-09T23:31:00.646Z,55.70
2018-06-09T23:33:30.087Z,55.70
2018-06-09T23:35:59.789Z,55.90
2018-06-09T23:38:29.664Z,56.30
2018-06-09T23:40:59.560Z,56.30
2018-06-09T23:43:29.557Z,56.20
2018-06-09T23:45:59.426Z,56.30
2018-06-09T23:48:29.348Z,56.30
2018-06-09T23:50:59.284Z,56.30
2018-06-09T23:53:29.660Z,56.60
2018-06-09T23:55:59.268Z,56.80
2018-06-09T23:58:28.464Z,56.80
